x

East Gulf - 208 Mn West Of Naples, Fl (42003) Wave Buoy

7:50am - Sun 1st Mar 2015 All times are EST. -5 hours from GMT.

  • Sig Wave height 4.6ft
  • Swell Direction
  • Peak Period 8s
  • Average Period 5s
  • Wind
    18mph, 22mph gusts
  • Sea Temp 77°f
  • Air Temp 74°f
  • Sea Pressure 1024.8mb
  • East Gulf - 208 Mn West Of Naples, Fl
  • East Gulf - 208 Mn West Of Naples, Fl

More Historic Weather Station data

Upgrade to MSW Pro to gain access to the past 30 days of data for over 8000 Wavebouys and Weather Stations around the globe.

Join Pro

Comparision Forecast

View Surf forecast
   
Sun 03/01 7:50am 4.5ft 8s 5s 18 22 mph 1024.8mb 77f 74f
6:50am 4.5ft 6s 5s 18 20 mph 1024.1mb 77f 74f
5:50am 4.5ft 6s 5s 18 20 mph 1023.6mb 77f 74f
4:50am 4.5ft 7s 5s 18 20 mph 1023.1mb 77f 74f
3:50am 4.5ft 6s 5s 16 20 mph 1023.1mb 77f 74f
2:50am 4.5ft 7s 5s 16 20 mph 1023.3mb 77f 74f
1:50am 4.5ft 7s 5s 18 20 mph 1023.8mb 77f 75f
12:50am 4.5ft 7s 5s 16 20 mph 1024.1mb 77f 74f
Sat 02/28 11:50pm 4.5ft 7s 5s 18 20 mph 1024.3mb 78f 74f
10:50pm 4ft 6s 5s 16 20 mph 1024.7mb 78f 74f
9:50pm 4ft 7s 5s 16 20 mph 1024.5mb 78f 73f
8:50pm 4.5ft 6s 5s 18 20 mph 1023.8mb 78f 73f
7:50pm 4.5ft 7s 5s 13 16 mph 1023.4mb 78f 74f
6:50pm 4.5ft 7s 6s 11 13 mph 1023mb 78f 73f
5:50pm 4.5ft 7s 5s 11 13 mph 1022.4mb 78f 73f
4:50pm 4.5ft 7s 5s 13 16 mph 1022.1mb 78f 73f
3:50pm 5ft 7s 6s 13 16 mph 1022.3mb 78f 73f
2:50pm 5ft 7s 6s 16 18 mph 1022.5mb 77f 72f
1:50pm 5.5ft 7s 6s 13 16 mph 1023.3mb 77f 72f
12:50pm 5.5ft 7s 6s 13 16 mph 1023.9mb 77f 72f
11:50am 6ft 7s 6s 13 18 mph 1025mb 78f 71f
10:50am 5.5ft 7s 5s 16 20 mph 1025.1mb 78f 70f
9:50am 5.5ft 7s 6s 16 18 mph 1024.8mb 78f 69f
8:50am 6ft 7s 6s 16 20 mph 1024.4mb 78f 68f
7:50am 6ft 7s 6s 18 22 mph 1023.7mb 78f 68f
6:50am 5ft 7s 6s 18 25 mph 1022.6mb 78f 68f
5:50am 5ft 7s 6s 20 22 mph 1021.6mb 78f 69f
4:50am 6.5ft 7s 6s 16 20 mph 1021.2mb 78f 69f
3:50am 5ft 7s 6s 16 22 mph 1021.2mb 77f 69f
2:50am 6ft 6s 6s 16 20 mph 1021.3mb 77f 69f
1:50am 6ft 7s 6s 16 20 mph 1021.8mb 77f 69f
12:50am 6ft 7s 6s 16 20 mph 1021.8mb 77f 68f
Fri 02/27 11:50pm 6.5ft 7s 6s 16 20 mph 1022.3mb 77f 67f
10:50pm 6ft 7s 6s 18 22 mph 1022mb 76f 67f
9:50pm 6ft 7s 5s 18 22 mph 1021.8mb 76f 66f
8:50pm 6ft 7s 6s 20 25 mph 1021mb 76f 66f
7:50pm 6ft 7s 6s 20 22 mph 1020.5mb 76f 66f
6:50pm 5ft 7s 5s 20 27 mph 1020mb 76f 66f
5:50pm 6ft 7s 5s 22 25 mph 1019.8mb 76f 66f
4:50pm 5.5ft 7s 5s 20 25 mph 1019.8mb 76f 66f
3:50pm 5.5ft 7s 5s 20 25 mph 1020mb 76f 66f
2:50pm 5ft 7s 5s 20 25 mph 1020.1mb 76f 66f
1:50pm 5ft 6s 5s 20 25 mph 1020.4mb 76f 66f
12:50pm 5ft 6s 5s 20 29 mph 1021.2mb 76f 66f
11:50am 4.5ft 6s 5s 20 25 mph 1021.9mb 76f 66f
10:50am 4.5ft 6s 5s 22 27 mph 1022mb 76f 66f
9:50am 5ft 6s 5s 20 25 mph 1021.8mb 76f 66f
8:50am 4.5ft 6s 5s 20 25 mph 1021mb 76f 66f
7:50am 5ft 6s 5s 20 25 mph 1020mb 76f 66f
6:50am 5ft 6s 5s 18 22 mph 1019.1mb 76f 65f
5:50am 5.5ft 6s 5s 20 27 mph 1017.9mb 76f 65f
4:50am 5ft 5s 5s 18 22 mph 1017.5mb 76f 65f
3:50am 5ft 5s 5s 20 25 mph 1017.1mb 76f 65f
2:50am 5ft 8s 5s 20 25 mph 1016.8mb 76f 66f
1:50am 4.5ft 7s 5s 20 22 mph 1016.9mb 76f 67f
12:50am 5ft 8s 5s 16 20 mph 1017.2mb 76f 67f
Thu 02/26 11:50pm 5ft 8s 5s 18 22 mph 1017.2mb 76f 67f
10:50pm 5ft 7s 5s 18 22 mph 1017.1mb 76f 66f
9:50pm 5ft 8s 6s 20 25 mph 1016.6mb 76f 68f
8:50pm 5ft 8s 5s 16 20 mph 1015.9mb 76f 69f
7:50pm 5.5ft 8s 6s 16 20 mph 1014.9mb 76f 68f
6:50pm 5.5ft 8s 6s 16 20 mph 1014.5mb 76f 68f
5:50pm 5.5ft 8s 6s 16 20 mph 1013.6mb 76f 68f
4:50pm 6.5ft 8s 6s 18 20 mph 1012.8mb 76f 68f
3:50pm 7ft 9s 6s 16 20 mph 1012.4mb 76f 67f
2:50pm 7ft 8s 6s 16 20 mph 1012.3mb 76f 68f
1:50pm 7ft 8s 6s 11 16 mph 1012.5mb 76f 69f
12:50pm 7ft 8s 6s 13 18 mph 1012.6mb 76f 69f
11:50am 7ft 8s 6s 16 18 mph 1012.5mb 76f 69f
10:50am 7ft 8s 6s 13 16 mph 1012.6mb 76f 69f
9:50am 7.5ft 8s 6s 16 18 mph 1011.8mb 76f 69f
8:50am 8ft 8s 6s 13 18 mph 1011.1mb 76f 69f
7:50am 6.5ft 9s 6s 18 22 mph 1010.3mb 76f 68f
6:50am 7ft 8s 6s 18 22 mph 1009.1mb 76f 67f
5:50am 7ft 7s 5s 18 25 mph 1008.2mb 76f 69f
4:50am 7ft 7s 5s 25 29 mph 1006.7mb 77f 69f
3:50am 9ft 7s 6s 22 29 mph 1006.6mb 78f 72f
2:50am 8.5ft 7s 6s 25 29 mph 1006.4mb 79f 73f
1:50am 7.5ft 7s 5s 27 31 mph 1005.7mb 79f 79f
12:50am 7.5ft 6s 5s 27 31 mph 1005.9mb 79f 75f
Wed 02/25 11:50pm 7ft 7s 5s 29 36 mph 1006mb 79f 79f
10:50pm 6.5ft 6s 5s 31 38 mph 1006.4mb 79f 79f
9:50pm 6ft 6s 5s 29 36 mph 1007mb 79f 79f
8:50pm 6.5ft 6s 5s 27 34 mph 1007mb 79f 78f
7:50pm 6.5ft 6s 5s 29 34 mph 1006.9mb 79f 78f
6:50pm 6ft 6s 5s 29 34 mph 1006.9mb 79f 78f
5:50pm 6ft 6s 5s 27 31 mph 1006.6mb 79f 78f
4:50pm 5ft 6s 5s 25 29 mph 1006.9mb 79f 78f
3:50pm 5ft 5s 5s 25 29 mph 1007.7mb 79f 78f
2:50pm 4.5ft 5s 4s 22 27 mph 1008.6mb 79f 78f
1:50pm 3.5ft 5s 4s 22 25 mph 1009.4mb 79f 77f